Tiempo atmosférico en la estación meteorológica de León Aeropuerto, León (916 m.)



Fecha
DESCASC
Temp. máxima en grados centígrados (hora)
DESCASC
Temp. mínima en grados centígrados (hora)
DESCASC
Temp. media en grados centígrados
DESCASC
Racha de viento máxima en m/sg (hora)
DESCASC
Velocidad máxima media en intervalos de 10 minutos(hora)
DESCASC
Precipitaciones diarias en mm
DESCASC
Precipitaciones de 00:00 a 06:00 en mm
DESCASC
Precipitaciones de 06:00 a 12:00 en mm
DESCASC
Precipitaciones de 12:00 a 18:00 en mm
DESCASC
Precipitaciones de 18:00 a 24:00 en mm
DESCASC

Gráficas

Temp. máximas Temp. mínimas Temp. medias Precipitaciones Rachas de viento máximas Velocidades máximas media en intervalos de 10 minutos

Datos horarios

Fecha y hora oficial Temperatura (ºC) Velocidad del viento (km/h) Dirección del viento Racha (km/h) Dirección de racha Precipitación (mm) Presión (hPa) Tendencia (hPa) Humedad (%)
2019-08-17 23:00:00 22.3 12 Oeste 17 Oeste 0 911.1 1 41
2019-08-17 22:00:00 24 11 Oeste 22 Oeste 0 910.7 0.3 36
2019-08-17 21:00:00 27.5 12 Oeste 33 Oeste 0 910.2 -0.6 28
2019-08-17 20:00:00 29.2 20 Oeste 32 Oeste 0 910.1 -1.2 25
2019-08-17 19:00:00 30.8 12 Oeste 28 Oeste 0 910.4 -1.6 25
2019-08-17 18:00:00 30.5 18 Sur 33 Sur 0 910.8 -1.8 24
2019-08-17 17:00:00 30 16 Sudoeste 26 Sudoeste 0 911.3 -1.6 26
2019-08-17 16:00:00 29.1 18 Sudoeste 41 Sudoeste 0 912 -1.4 28
2019-08-17 15:00:00 28.3 16 Sudoeste 30 Sur 0 912.6 -1.2 29
2019-08-17 14:00:00 27.4 16 Sudoeste 33 Sudoeste 0 912.9 -1.2 31
2019-08-17 13:00:00 26.9 17 Oeste 41 Oeste 0 913.4 -0.9 28
2019-08-17 12:00:00 25.2 16 Oeste 33 Oeste 0 913.8 -0.3 32
2019-08-17 11:00:00 22.9 11 Oeste 21 Noroeste 0 914.1 0.3 39
2019-08-17 10:00:00 20.6 5 Este 9 Este 0 914.3 0.7 51
2019-08-17 09:00:00 17.9 3 Este 13 Noroeste 0 914.1 0.6 62
2019-08-17 08:00:00 13.6 3 Norte 11 Noroeste 0 913.8 0.2 75
2019-08-17 07:00:00 13.5 10 Norte 11 Norte 0 913.6 0 71
2019-08-17 06:00:00 14.1 7 Noroeste 13 Norte 0 913.5 -0.5 64
2019-08-17 05:00:00 14.1 9 Norte 13 Norte 0 913.6 -0.7 60
2019-08-17 04:00:00 15.1 6 Norte 15 Norte 0 913.6 -0.6 58
2019-08-17 03:00:00 15.6 9 Norte 22 Noroeste 0 914 -0.2 57
2019-08-17 02:00:00 18.1 6 Oeste 13 Noroeste 0 914.3 0.3 55
2019-08-17 01:00:00 19.7 9 Oeste 18 Oeste 0 914.2 0.7 49
2019-08-17 00:00:00 20.5 9 Oeste 18 Noroeste 0 914.2 1.2 41
2019-08-16 23:00:00 22.1 13 Noroeste 22 Oeste 0 914 1.2 38
2019-08-16 22:00:00 23.6 13 Oeste 22 Oeste 0 913.5 0.6 30
2019-08-16 21:00:00 26.6 15 Oeste 28 Oeste 0 913 -0.2 23
2019-08-16 20:00:00 29 18 Oeste 32 Oeste 0 912.8 -0.7 19
2019-08-16 19:00:00 30.6 18 Oeste 35 Oeste 0 912.9 -0.9 18
2019-08-16 18:00:00 30.3 16 Sudoeste 35 Oeste 0 913.2 -1.2 20
2019-08-16 17:00:00 29.9 19 Sudoeste 30 Sudoeste 0 913.5 -1.4 24
2019-08-16 16:00:00 29.8 15 Sudoeste 33 Oeste 0 913.8 -1.3 22
2019-08-16 15:00:00 28.4 13 Sur 41 Sudoeste 0 914.4 -1 26
2019-08-16 14:00:00 27.1 15 Sudoeste 26 Sur 0 914.9 -0.9 33
2019-08-16 13:00:00 25.9 13 Sur 22 Sudoeste 0 915.1 -0.8 35
2019-08-16 12:00:00 24.6 9 Sur 21 Sur 0 915.4 -0.6 40
2019-08-16 11:00:00 22.3 4 Sudeste 9 Este 0 915.8 -0.2 50
2019-08-16 10:00:00 19 5 Este 9 Este 0 915.9 0 61
2019-08-16 09:00:00 15.8 7 Nordeste 13 Nordeste 0 916 -0.1 73
2019-08-16 08:00:00 12.8 7 Norte 9 Norte 0 916 -0.4 85
2019-08-16 07:00:00 12.9 2 Norte 5 Norte 0 915.9 -0.7 81
2019-08-16 06:00:00 13.8 0 Calma 5 Este 0 916.1 -0.5 78
2019-08-16 05:00:00 14.8 2 Norte 11 Oeste 0 916.4 -0.4 76
2019-08-16 04:00:00 15.4 4 Noroeste 9 Oeste 0 916.6 -0.4 74
2019-08-16 03:00:00 16.1 2 Norte 11 Noroeste 0 916.6 -0.6 71
2019-08-16 02:00:00 16.7 6 Noroeste 9 Noroeste 0 916.8 -0.6 68
2019-08-16 01:00:00 18.6 0 Calma 5 Oeste 0 917 0.6 58
2019-08-16 00:00:00 19.5 3 Norte 11 Norte 0 917.2 1.4 54
2019-08-15 23:00:00 20.9 6 Norte 13 Norte 0 917.4 1.9 51
2019-08-15 22:00:00 22.1 9 Norte 18 Norte 0 916.4 1.1 49
2019-08-15 21:00:00 24.8 12 Norte 24 Norte 0 915.8 0.4 41
2019-08-15 20:00:00 27 19 Norte 35 Noroeste 0 915.5 -0.2 36
2019-08-15 19:00:00 29 18 Sudoeste 35 Oeste 0 915.3 -0.9 28
2019-08-15 18:00:00 29.1 19 Oeste 37 Oeste 0 915.4 -1.2 29
2019-08-15 17:00:00 28.5 23 Sudoeste 37 Oeste 0 915.7 -1.4 30
2019-08-15 16:00:00 27.7 15 Sudoeste 33 Oeste 0 916.2 -1.3 32
2019-08-15 15:00:00 26.6 9 Sur 30 Sur 0 916.6 -1.3 31
2019-08-15 14:00:00 25.2 10 Sur 22 Sur 0 917.1 -0.9 31
2019-08-15 13:00:00 23.6 10 Sur 18 Sur 0 917.5 -0.7 34
2019-08-15 12:00:00 22.3 11 Sudeste 18 Sudeste 0 917.9 -0.3 35
2019-08-15 11:00:00 20.7 6 Este 11 Este 0 918 0.2 39
2019-08-15 10:00:00 17.9 5 Nordeste 9 Nordeste 0 918.2 0.7 45
2019-08-15 09:00:00 15.8 6 Sudeste 11 Norte 0 918.2 0.7 55
2019-08-15 08:00:00 12.1 4 Oeste 15 Noroeste 0 917.8 0.2 69
2019-08-15 07:00:00 11.3 9 Noroeste 13 Norte 0 917.5 0.1 78
2019-08-15 06:00:00 11.9 8 Noroeste 11 Noroeste 0 917.5 0.3 80
2019-08-15 05:00:00 12.8 6 Noroeste 9 Oeste 0 917.6 0.1 81
2019-08-15 04:00:00 14.8 0 Calma 9 Nordeste 0 917.4 0 75
2019-08-15 03:00:00 15 9 Noroeste 15 Norte 0 917.2 -0.2 78
2019-08-15 02:00:00 15.7 10 Norte 15 Noroeste 0 917.5 0.6 75
2019-08-15 01:00:00 17.7 8 Noroeste 17 Noroeste 0 917.4 1.3 69
2019-08-15 00:00:00 19.6 10 Oeste 21 Noroeste 0 917.4 1.9 61
2019-08-14 23:00:00 20.7 8 Noroeste 26 Noroeste 0 916.9 1.7 58
2019-08-14 22:00:00 22.5 17 Noroeste 30 Noroeste 0 916.1 0.9 53
2019-08-14 21:00:00 25.4 19 Oeste 35 Oeste 0 915.5 0.3 43
2019-08-14 20:00:00 27.4 22 Oeste 32 Oeste 0 915.2 -0.2 39
2019-08-14 19:00:00 28.7 18 Oeste 32 Oeste 0 915.2 -0.7 31
2019-08-14 18:00:00 28.9 26 Oeste 41 Sudoeste 0 915.2 -1 32
2019-08-14 17:00:00 29 26 Sudoeste 46 Sudoeste 0 915.4 -1.4 32
2019-08-14 16:00:00 28 23 Sudoeste 39 Oeste 0 915.9 -1.1 34
2019-08-14 15:00:00 27.5 21 Oeste 35 Oeste 0 916.2 -1 34
2019-08-14 14:00:00 25.7 15 Sudoeste 32 Sudoeste 0 916.8 -0.4 36
2019-08-14 13:00:00 24.3 15 Sudoeste 24 Sudoeste 0 917 -0.5 36
2019-08-14 12:00:00 22.4 8 Sudeste 15 Este 0 917.2 -0.2 39
2019-08-14 11:00:00 20.1 9 Este 17 Este 0 917.2 0.1 45
2019-08-14 10:00:00 18 6 Este 11 Este 0 917.5 0.3 53
2019-08-14 09:00:00 15 4 Norte 11 Noroeste 0 917.4 0.6 67
2019-08-14 08:00:00 11.3 5 Noroeste 11 Noroeste 0 917.1 -0.1 76
2019-08-14 07:00:00 11 9 Norte 13 Norte 0 917.2 -0.2 77
2019-08-14 06:00:00 11.7 6 Noroeste 15 Norte 0 916.8 -0.8 76
2019-08-14 05:00:00 11.9 10 Norte 13 Norte 0 917.2 -0.4 76
2019-08-14 04:00:00 12.3 9 Norte 11 Norte 0 917.4 0 76
2019-08-14 03:00:00 12.8 9 Norte 13 Norte 0 917.6 0.7 72
2019-08-14 02:00:00 13.9 7 Norte 15 Este 0 917.6 0.6 64
2019-08-14 01:00:00 14.8 3 Norte 18 Noroeste 0 917.4 1.1 66
2019-08-14 00:00:00 16.5 10 Noroeste 15 Noroeste 0 916.9 0.9 50
2019-08-13 23:00:00 17.3 10 Oeste 13 Oeste 0 917 1.1 43
2019-08-13 22:00:00 19.3 7 Oeste 17 Sudoeste 0 916.3 0.5 35
2019-08-13 21:00:00 22.9 13 Sudoeste 21 Sudoeste 0 916 0 29
2019-08-13 20:00:00 24 14 Sudoeste 24 Sudoeste 0 915.9 -0.6 27
2019-08-13 19:00:00 24.2 14 Sudoeste 28 Sudoeste 0 915.8 -1.2 28
2019-08-13 18:00:00 23.8 14 Sudoeste 28 Sudoeste 0 916 -1.5 29
2019-08-13 17:00:00 22.9 10 Sur 22 Sur 0 916.5 -1.3 29
2019-08-13 16:00:00 21.9 11 Sur 26 Sur 0 917 -1.2 31
2019-08-13 15:00:00 20.8 11 Sudoeste 26 Sur 0 917.5 -0.8 36
2019-08-13 14:00:00 19.4 14 Sur 26 Sudoeste 0 917.8 -0.9 42
2019-08-13 13:00:00 18 10 Sur 22 Sudoeste 0 918.2 -0.8 46
2019-08-13 12:00:00 16.4 7 Sur 17 Sudoeste 0 918.3 -0.5 53
2019-08-13 11:00:00 14.6 6 Sudoeste 13 Sur 0 918.7 0 61
2019-08-13 10:00:00 12.6 5 Sudoeste 11 Sudoeste 0 919 0.7 69
2019-08-13 09:00:00 10.8 0 Calma 9 Noroeste 0 918.8 0.9 77
2019-08-13 08:00:00 7.6 8 Noroeste 11 Noroeste 0 918.7 0.6 86
2019-08-13 07:00:00 7.7 6 Oeste 9 Noroeste 0 918.3 -0.2 84
2019-08-13 06:00:00 7.7 6 Noroeste 11 Noroeste 0 917.9 -0.8 81
2019-08-13 05:00:00 9.2 6 Noroeste -- -- 0 918.1 -0.7 76
2019-08-13 04:00:00 10.1 3 Nordeste 8 Nordeste 0 918.5 -0.5 73
2019-08-13 03:00:00 11.7 0 Calma 8 Nordeste 0 918.7 -0.6 67
2019-08-13 02:00:00 12.5 5 Nordeste 13 Este 0 918.8 -0.2 63
2019-08-13 01:00:00 13.1 10 Nordeste 15 Nordeste 0 919 1 61
2019-08-13 00:00:00 13.6 11 Nordeste 18 Nordeste 0 919.3 2 62
2019-08-12 23:00:00 13.8 11 Nordeste 30 Norte 0 919 1.9 62
2019-08-12 22:00:00 14.6 16 Norte 30 Norte 0 918 1.2 56
2019-08-12 21:00:00 17.1 12 Nordeste 24 Norte 0 917.3 0.5 44
2019-08-12 20:00:00 18.1 15 Nordeste 26 Nordeste 0 917.1 0.1 42
2019-08-12 19:00:00 18 14 Norte 30 Nordeste 0 916.8 -0.5 40
2019-08-12 18:00:00 19.7 10 Nordeste 21 Este 0 916.8 -1.1 29
2019-08-12 17:00:00 19.8 14 Nordeste 32 Noroeste 0 917 -1.2 29
2019-08-12 16:00:00 19.9 15 Nordeste 30 Nordeste 0 917.3 -1.2 28
2019-08-12 15:00:00 19.2 17 Nordeste 35 Norte 0 917.9 -0.7 30
2019-08-12 14:00:00 18.5 19 Norte 33 Norte 0 918.2 -0.2 31
2019-08-12 13:00:00 17.5 16 Nordeste 35 Nordeste 0 918.5 0.3 34
2019-08-12 12:00:00 16.5 21 Norte 33 Norte 0 918.6 0.8 36
2019-08-12 11:00:00 14.7 8 Norte 18 Norte 0 918.4 1 45
2019-08-12 10:00:00 13.2 7 Norte 17 Norte 0 918.2 1.3 52
2019-08-12 09:00:00 11.2 6 Noroeste 15 Noroeste 0 917.8 1.1 64
2019-08-12 08:00:00 6.9 11 Noroeste 15 Noroeste 0 917.4 0.5 78
2019-08-12 07:00:00 6.7 11 Noroeste 18 Noroeste 0 916.9 0.1 78
2019-08-12 06:00:00 7.1 6 Oeste 13 Noroeste 0 916.7 -0.2 78
2019-08-12 05:00:00 7.3 4 Norte 15 Noroeste 0 916.9 -0.3 76
2019-08-12 04:00:00 8.4 10 Noroeste 15 Oeste 0 916.8 -0.3 74
2019-08-12 03:00:00 7.8 12 Noroeste 17 Noroeste 0 916.9 0.1 74
2019-08-12 02:00:00 8.9 8 Noroeste 11 Norte 0 917.2 0.6 69
2019-08-12 01:00:00 9.9 0 Calma 13 Oeste 0 917.1 1.3 64
2019-08-12 00:00:00 11 10 Oeste 15 Norte 0 916.8 1.6 61
2019-08-11 23:00:00 12.4 8 Norte 17 Noroeste 0 916.6 2.3 60
2019-08-11 22:00:00 13.8 9 Noroeste 15 Norte 0 915.8 2 55
2019-08-11 21:00:00 15.7 9 Norte 32 Noroeste 0 915.2 1.7 52
2019-08-11 20:00:00 18.4 19 Noroeste 45 Noroeste 0 914.3 0.8 42
2019-08-11 19:00:00 20.4 29 Oeste 48 Oeste 0 913.8 0 32
2019-08-11 18:00:00 21.8 17 Oeste 50 Oeste 0 913.5 -0.1 23
2019-08-11 17:00:00 22 23 Oeste 45 Oeste 0 913.5 -0.7 23
2019-08-11 16:00:00 21.7 25 Oeste 42 Oeste 0 913.8 -0.6 25
2019-08-11 15:00:00 21.2 23 Sudoeste 39 Sudoeste 0 913.6 -0.9 23
2019-08-11 14:00:00 20.2 22 Oeste 45 Oeste 0 914.2 0 30
2019-08-11 13:00:00 19.3 16 Oeste 32 Oeste 0 914.4 0.2 36
2019-08-11 12:00:00 18 19 Oeste 32 Sudoeste 0 914.5 0.7 54
2019-08-11 11:00:00 16.3 17 Oeste 28 Oeste 0 914.2 0.4 62
2019-08-11 10:00:00 15.3 14 Sudoeste 18 Sudoeste 0 914.2 0.7 67
2019-08-11 09:00:00 14 5 Oeste 11 Oeste 0 913.8 0.1 76
2019-08-11 08:00:00 13.3 4 Oeste 9 Oeste 0 913.8 -0.2 83
2019-08-11 07:00:00 12.6 5 Oeste 8 Oeste 0 913.5 -0.5 83
2019-08-11 06:00:00 13.4 4 Sudeste 13 Sudeste 0 913.7 -1 80
2019-08-11 05:00:00 14.2 6 Sur 15 Sudeste 0 914 -1.1 75
2019-08-11 04:00:00 14.5 9 Este 13 Este 0 914 -1.1 72
2019-08-11 03:00:00 14.7 2 Noroeste 13 Norte 0 914.7 0.1 70
2019-08-11 02:00:00 14.9 7 Norte 13 Norte 0 915.1 -0.1 69
2019-08-11 01:00:00 15.4 9 Nordeste 13 Norte 0 915.1 0.7 68
2019-08-11 00:00:00 15.6 6 Nordeste 11 Norte 0 914.6 0.5 66
2019-08-10 23:00:00 16.2 4 Norte 17 Noroeste 0 915.2 1.2 64
2019-08-10 22:00:00 18 10 Norte 28 Oeste 0 914.4 0.4 56
2019-08-10 21:00:00 20.2 18 Oeste 32 Oeste 0 914.1 -0.5 40
2019-08-10 20:00:00 23.1 7 Sudeste 18 Sudeste 0 914 -0.8 28
2019-08-10 19:00:00 23.3 7 Sudeste 22 Sur 0 914 -1.4 27
2019-08-10 18:00:00 22.5 12 Sudoeste 30 Sudoeste 0 914.6 -1.3 30
2019-08-10 17:00:00 23 13 Sur 30 Sur 0 914.8 -1.4 29
2019-08-10 16:00:00 22.9 8 Sudoeste 26 Sur 0 915.4 -1 29
2019-08-10 15:00:00 21.8 13 Sudoeste 28 Oeste 0 915.9 -0.8 30
2019-08-10 14:00:00 20.5 13 Oeste 30 Sudoeste 0 916.2 -0.3 30
2019-08-10 13:00:00 19.6 16 Sudoeste 28 Oeste 0 916.4 -0.2 37
2019-08-10 12:00:00 18.7 15 Sudoeste 24 Sudoeste 0 916.7 0.3 43
2019-08-10 11:00:00 17.1 12 Oeste 22 Oeste 0 916.5 0.7 49
2019-08-10 10:00:00 15.8 9 Oeste 18 Oeste 0 916.6 1.2 53
2019-08-10 09:00:00 14.2 10 Oeste 30 Oeste 0 916.4 1 62
2019-08-10 08:00:00 11.9 18 Oeste 30 Oeste 0 915.8 0.8 74
2019-08-10 07:00:00 12.3 15 Oeste 30 Noroeste 0 915.4 0.5 73
2019-08-10 06:00:00 13.4 13 Oeste 22 Oeste 0 915.4 0.5 70
2019-08-10 05:00:00 13.7 8 Oeste 21 Oeste 0 915 -0.1 72
2019-08-10 04:00:00 14.1 10 Oeste 24 Oeste 0 914.9 0.2 69
2019-08-10 03:00:00 14.5 12 Noroeste 24 Noroeste 0 914.9 0.2 66
2019-08-10 02:00:00 15 12 Oeste 22 Oeste 0 915.1 0.5 64
2019-08-10 01:00:00 15.6 14 Oeste 22 Oeste 0 914.7 0.6 61
2019-08-10 00:00:00 15.9 16 Oeste 28 Oeste 0 914.7 1.5 58
2019-08-09 23:00:00 16.4 17 Oeste 33 Oeste 0 914.6 2 55
2019-08-09 22:00:00 17.2 15 Oeste 30 Oeste 0 914.1 2 50
2019-08-09 21:00:00 18.5 18 Oeste 33 Oeste 0 913.2 1.1 49
2019-08-09 20:00:00 19.8 21 Oeste 37 Oeste 0 912.6 0.7 48
2019-08-09 19:00:00 21.6 23 Oeste 37 Oeste 0 912.1 0.6 40
2019-08-09 18:00:00 23.6 23 Oeste 50 Oeste 0 912.1 0.9 33
2019-08-09 17:00:00 21.8 27 Oeste 41 Oeste 0 911.9 0.8 37
2019-08-09 16:00:00 22.1 27 Oeste 46 Oeste 0 911.5 0.2 37
2019-08-09 15:00:00 22.8 17 Oeste 32 Sudoeste 0 911.2 0 41
2019-08-09 14:00:00 20.7 8 Oeste 22 Oeste 0 911.1 0.6 52
2019-08-09 13:00:00 19.9 10 Sudoeste 24 Sudoeste 0 911.3 1.4 58
2019-08-09 12:00:00 18.6 15 Sudoeste 26 Sudoeste 0 911.2 2.2 65
2019-08-09 11:00:00 17.8 13 Oeste 26 Oeste 0 910.5 2.2 70
2019-08-09 10:00:00 16.5 13 Oeste 24 Oeste 0 909.9 2 87
2019-08-09 09:00:00 17 16 Sudoeste 41 Sudoeste 0.3 909 0.8 96
2019-08-09 08:00:00 17.8 27 Sudoeste 45 Sur 0.1 908.3 -0.2 97
2019-08-09 07:00:00 17.9 27 Sur 45 Sudoeste 0.5 907.9 -0.6 95
2019-08-09 06:00:00 18.8 28 Sur 41 Sudoeste 0 908.2 -0.8 86
2019-08-09 05:00:00 19.3 24 Sur 48 Sudoeste 0 908.5 -0.9 82
2019-08-09 04:00:00 19.4 29 Sur 54 Sur 0 908.5 -1 80
2019-08-09 03:00:00 19.2 8 Sudeste 37 Sudoeste 0 909 -0.9 80
2019-08-09 02:00:00 19.6 26 Sudoeste 41 Sudoeste 0 909.4 -0.1 77
2019-08-09 01:00:00 20 14 Sur 39 Sudoeste 0 909.5 0.3 74
2019-08-09 00:00:00 21.2 20 Sur 35 Sur 0 909.9 0.8 66
2019-08-08 23:00:00 21.2 24 Sudoeste 35 Sudoeste 0 909.5 0.8 64
2019-08-08 22:00:00 22 31 Sudoeste 46 Sudoeste 0 909.2 0.5 61
2019-08-08 21:00:00 23.2 28 Sudoeste 46 Sudoeste 0 909.1 -0.1 60
2019-08-08 20:00:00 24.5 38 Sudoeste 58 Sudoeste 0 908.7 -0.7 57
2019-08-08 19:00:00 25.9 35 Sudoeste 50 Sur 0 908.7 -1.1 52
2019-08-08 18:00:00 24.1 23 Sur 41 Sur 0 909.2 -1.2 60
2019-08-08 17:00:00 23.6 26 Sur 52 Sudoeste 0 909.4 -1.3 62
2019-08-08 16:00:00 23.4 33 Sur 48 Sudoeste 0 909.8 -1.1 66
2019-08-08 15:00:00 22.3 27 Sur 39 Sudoeste 0 910.4 -0.8 71
2019-08-08 14:00:00 21.8 21 Sur 33 Sur 0 910.7 -0.5 72
2019-08-08 13:00:00 20.5 14 Sur 24 Sur 0 910.9 -0.2 77
2019-08-08 12:00:00 19.7 15 Sur 22 Sur 0 911.2 0.5 79
2019-08-08 11:00:00 18.6 13 Sur 24 Sur 0 911.2 0.5 84
2019-08-08 10:00:00 17.4 12 Sur 21 Sur 0 911.1 0.6 90
2019-08-08 09:00:00 16.7 9 Sur 15 Sur 0 910.7 0.2 91
2019-08-08 08:00:00 16.2 8 Sur 18 Sur 0 910.7 -0.2 92
2019-08-08 07:00:00 16.4 12 Sudoeste 21 Sudoeste 0 910.5 -0.4 91
2019-08-08 06:00:00 16.5 11 Sur 22 Sur 0 910.5 -0.5 91
2019-08-08 05:00:00 16.6 13 Sur 22 Sudoeste 0 910.9 -0.3 91
2019-08-08 04:00:00 16.9 11 Nordeste 13 Nordeste 0 910.9 -0.4 90
2019-08-08 03:00:00 16.7 5 Nordeste 8 Este 0 911 -0.2 92
2019-08-08 02:00:00 16.3 5 Nordeste 9 Norte 0 911.2 -0.1 94
2019-08-08 01:00:00 16.4 6 Norte 9 Norte 0 911.3 0.3 96
2019-08-08 00:00:00 16.3 6 Nordeste 8 Nordeste 0 911.2 0.2 92
2019-08-07 23:00:00 16.5 8 Sur 11 Sur 0 911.3 0.9 90
2019-08-07 22:00:00 16.8 5 Oeste 22 Sudoeste 0 911 0.4 90
2019-08-07 21:00:00 17.3 17 Sudoeste 24 Sudoeste 0 911 0.4 90
2019-08-07 20:00:00 18.4 8 Oeste 37 Sur 0.8 910.4 -0.1 83
2019-08-07 19:00:00 20.8 25 Sudoeste 33 Sudoeste 0 910.6 -0.1 61
2019-08-07 18:00:00 19.9 14 Sudoeste 41 Sur 0.1 910.6 -0.2 66
2019-08-07 17:00:00 22.6 19 Sur 35 Sudoeste 0 910.5 -0.4 47
2019-08-07 16:00:00 23.6 24 Sur 41 Sudoeste 0 910.7 -0.1 41
2019-08-07 15:00:00 22.3 13 Sudoeste 41 Sudoeste 0 910.8 0 46
2019-08-07 14:00:00 22.8 17 Sudoeste 32 Sudoeste 0 910.9 0.1 41
2019-08-07 13:00:00 23.3 13 Sudoeste 28 Sudoeste 0 910.8 0.2 37
2019-08-07 12:00:00 22.7 10 Sur 22 Sur 0 910.8 0.5 40
2019-08-07 11:00:00 21.8 5 Sudeste 11 Sudeste 0 910.8 0.8 48
2019-08-07 10:00:00 19.8 5 Este 9 Nordeste 0 910.6 0.9 54
2019-08-07 09:00:00 17.6 5 Norte 9 Noroeste 0 910.3 0.8 59
2019-08-07 08:00:00 14.7 5 Norte 9 Noroeste 0 910 0.6 69
2019-08-07 07:00:00 15.7 5 Norte 9 Noroeste 0 909.7 0.2 64
2019-08-07 06:00:00 17 0 Calma 13 Noroeste 0 909.5 -0.3 61
2019-08-07 05:00:00 17.4 9 Noroeste 15 Noroeste 0 909.4 -0.8 60
2019-08-07 04:00:00 17.2 10 Oeste 17 Noroeste 0 909.5 -0.8 66
2019-08-07 03:00:00 17.5 9 Oeste 18 Oeste 0 909.8 -0.5 69
2019-08-07 02:00:00 18.6 7 Oeste 13 Noroeste 0 910.2 -0.2 66
2019-08-07 01:00:00 18.9 5 Sudeste 17 Noroeste 0 910.3 0.4 64
2019-08-07 00:00:00 18.5 12 Noroeste 18 Noroeste 0 910.3 0.5 71
2019-08-06 23:00:00 19.4 10 Noroeste 15 Norte 0 910.4 1.3 68
2019-08-06 22:00:00 20.5 8 Noroeste 21 Noroeste 0 909.9 0.8 63
2019-08-06 21:00:00 21.9 18 Oeste 39 Noroeste 0 909.8 0.5 53
2019-08-06 20:00:00 23.2 23 Oeste 39 Oeste 0 909.1 -0.6 46
2019-08-06 19:00:00 25.3 19 Noroeste 30 Noroeste 0 909.1 -1.2 35
2019-08-06 18:00:00 26.9 8 Oeste 22 Oeste 0 909.3 -1.6 33
2019-08-06 17:00:00 27.5 14 Oeste 28 Oeste 0 909.7 -1.3 33
2019-08-06 16:00:00 25.9 10 Sudoeste 24 Oeste 0 910.3 -1.1 34
2019-08-06 15:00:00 24.9 12 Sur 26 Sur 0 910.9 -0.8 44
2019-08-06 14:00:00 25.4 10 Sur 21 Sudoeste 0 911 -0.9 41
2019-08-06 13:00:00 24.5 10 Sudoeste 21 Sudoeste 0 911.4 -0.5 46
2019-08-06 12:00:00 23.1 6 Sur 18 Sudoeste 0 911.7 0 53
2019-08-06 11:00:00 20.2 6 Sudeste 11 Sudeste 0 911.9 0.5 66
2019-08-06 10:00:00 18.7 2 Sudeste 8 Nordeste 0 911.9 0.4 72
2019-08-06 09:00:00 16.7 0 Calma 5 Oeste 0 911.7 0.2 79
2019-08-06 08:00:00 14.7 5 Este 15 Norte 0 911.4 -0.6 85
2019-08-06 07:00:00 14.2 7 Norte 13 Nordeste 0 911.5 -0.6 86
2019-08-06 06:00:00 15.8 3 Norte 8 Noroeste 0 911.5 -0.6 80
2019-08-06 05:00:00 15.9 5 Noroeste 8 Oeste 0 912 -0.3 77
2019-08-06 04:00:00 16.7 3 Norte 8 Norte 0 912.1 -0.1 76
2019-08-06 03:00:00 17.8 0 Calma 8 Noroeste 0 912.1 0.2 73
2019-08-06 02:00:00 18.5 8 Noroeste 11 Norte 0 912.3 0.8 70
2019-08-06 01:00:00 19.8 8 Nordeste 15 Nordeste 0 912.2 1.3 67
2019-08-06 00:00:00 20.8 7 Norte 17 Norte 0 911.9 1.4 61
2019-08-05 23:00:00 22.8 12 Norte 28 Noroeste 0 911.5 1.2 45
2019-08-05 22:00:00 24.6 13 Oeste 26 Oeste 0 910.9 0.4 39
2019-08-05 21:00:00 28 15 Oeste 24 Oeste 0 910.5 -0.3 31
2019-08-05 20:00:00 29.5 15 Oeste 26 Sudoeste 0 910.3 -0.8 27
2019-08-05 19:00:00 29.9 13 Oeste 28 Sudoeste 0 910.5 -1 27
2019-08-05 18:00:00 29.7 15 Sudoeste 33 Sudoeste 0 910.8 -1.1 27
2019-08-05 17:00:00 29.2 16 Sudoeste 33 Sudoeste 0 911.1 -1.3 29
2019-08-05 16:00:00 28.6 15 Sudoeste 42 Oeste 0 911.5 -1.3 28
2019-08-05 15:00:00 27.9 11 Oeste 32 Sur 0 911.9 -1.5 29
2019-08-05 14:00:00 26.5 11 Sudoeste 21 Sudoeste 0 912.4 -1.2 32
2019-08-05 13:00:00 24.8 9 Sur 24 Sur 0 912.8 -1 37
2019-08-05 12:00:00 23.4 3 Norte 13 Oeste 0 913.4 -0.6 47
2019-08-05 11:00:00 21.2 6 Este 13 Sudeste 0 913.6 -0.3 58
2019-08-05 10:00:00 19.6 4 Nordeste 9 Nordeste 0 913.8 0.1 66
2019-08-05 09:00:00 16.7 3 Norte 9 Norte 0 914 0.5 77
2019-08-05 08:00:00 13.3 3 Norte 5 Norte 0 913.9 0.2 86
2019-08-05 07:00:00 13.2 4 Noroeste -- -- 0 913.7 -0.1 84
2019-08-05 06:00:00 13.4 0 Calma 9 Norte 0 913.5 -0.2 85
2019-08-05 05:00:00 14.3 3 Nordeste 8 Oeste 0 913.7 0 80
2019-08-05 04:00:00 15.2 3 Norte 8 Norte 0 913.8 0.3 77
2019-08-05 03:00:00 16.2 3 Noroeste 8 Noroeste 0 913.7 0.3 76
2019-08-05 02:00:00 16.5 6 Noroeste 11 Norte 0 913.7 0.3 74
2019-08-05 01:00:00 18.2 6 Norte 13 Norte 0 913.5 1.1 70
2019-08-05 00:00:00 19.1 9 Norte 13 Norte 0 913.4 1.9 66
2019-08-04 23:00:00 20.9 9 Norte 24 Norte 0 913.4 2.4 60
2019-08-04 22:00:00 23.5 12 Norte 32 Oeste 0 912.4 1.8 47
2019-08-04 21:00:00 26.8 19 Oeste 33 Oeste 0 911.5 0.8 32
2019-08-04 20:00:00 28.8 24 Oeste 33 Oeste 0 911 -0.2 26
2019-08-04 19:00:00 30.7 16 Oeste 30 Sudoeste 0 910.6 -1.1 25
2019-08-04 18:00:00 30.6 9 Sur 32 Sur 0 910.7 -1.4 21
2019-08-04 17:00:00 29.9 18 Sur 35 Oeste 0 911.2 -1.2 24
2019-08-04 16:00:00 29.2 13 Sudoeste 28 Sur 0 911.7 -1 28
2019-08-04 15:00:00 28.2 15 Sudoeste 28 Oeste 0 912.1 -0.8 30
2019-08-04 14:00:00 27.1 12 Sur 28 Sur 0 912.4 -0.5 33
2019-08-04 13:00:00 25.7 12 Sur 28 Sur 0 912.7 -0.5 38
2019-08-04 12:00:00 24.1 6 Sudeste 15 Sur 0 912.9 0 46
2019-08-04 11:00:00 22.4 10 Sur 17 Sur 0 912.9 0.5 53
2019-08-04 10:00:00 20.1 5 Sudeste 9 Sudeste 0 913.2 1 62
2019-08-04 09:00:00 17.7 5 Norte 9 Nordeste 0 912.9 0.8 71
2019-08-04 08:00:00 15 0 Calma 9 Nordeste 0 912.4 0.1 82
2019-08-04 07:00:00 14.3 5 Oeste 9 Noroeste 0 912.2 -0.1 83
2019-08-04 06:00:00 15.1 5 Oeste 8 Oeste 0 912.1 -0.3 80
2019-08-04 05:00:00 16 4 Oeste 8 Oeste 0 912.3 -0.2 78
2019-08-04 04:00:00 16.4 6 Norte 11 Noroeste 0 912.3 -0.3 77
2019-08-04 03:00:00 17 9 Noroeste 15 Norte 0 912.4 0.2 74
2019-08-04 02:00:00 18 11 Noroeste 15 Noroeste 0 912.5 0.5 72
2019-08-04 01:00:00 18.6 11 Noroeste 13 Noroeste 0 912.6 1.3 70
2019-08-04 00:00:00 20.2 7 Norte 11 Noroeste 0 912.2 1.6 64
2019-08-03 23:00:00 21.2 9 Noroeste 21 Norte 0 912 1.8 58
2019-08-03 22:00:00 23.5 11 Norte 24 Norte 0 911.3 1.1 52
2019-08-03 21:00:00 28.1 12 Norte 30 Oeste 0 910.6 0.3 34
2019-08-03 20:00:00 30.3 13 Oeste 32 Oeste 0 910.2 -0.6 25
2019-08-03 19:00:00 31.7 13 Sudoeste 30 Sudoeste 0 910.2 -1.1 20
2019-08-03 18:00:00 30.9 17 Sudoeste 33 Sur 0 910.3 -1.5 21
2019-08-03 17:00:00 31 12 Sur 33 Oeste 0 910.8 -1.2 22
2019-08-03 16:00:00 30.6 15 Sudoeste 37 Oeste 0 911.3 -1.1 23
2019-08-03 15:00:00 29.8 21 Sudoeste 33 Sudoeste 0 911.8 -0.8 22
2019-08-03 14:00:00 29.3 13 Sudoeste 28 Oeste 0 912 -0.8 24
2019-08-03 13:00:00 28.3 7 Sur 18 Sur 0 912.4 -0.5 28
2019-08-03 12:00:00 26.6 5 Este 17 Sudeste 0 912.6 -0.3 31
2019-08-03 11:00:00 24.9 8 Este 15 Este 0 912.8 0 33
2019-08-03 10:00:00 22.6 8 Nordeste 13 Nordeste 0 912.9 0.1 41
2019-08-03 09:00:00 19.9 7 Norte 15 Norte 0 912.9 0 51
2019-08-03 08:00:00 16.4 6 Norte 17 Norte 0 912.8 -0.2 62
2019-08-03 07:00:00 15.2 12 Norte 17 Norte 0 912.8 -0.8 67
2019-08-03 06:00:00 14.9 12 Norte 21 Norte 0 912.9 -0.6 68
2019-08-03 05:00:00 14.7 13 Norte 18 Norte 0 913 -0.5 68
2019-08-03 04:00:00 16.3 4 Norte 11 Sudeste 0 913.6 0 63
2019-08-03 03:00:00 17.4 0 Calma 13 Noroeste 0 913.5 -0.3 57
2019-08-03 02:00:00 17.2 11 Noroeste 13 Noroeste 0 913.5 0.1 59
2019-08-03 01:00:00 18 11 Norte 15 Norte 0 913.6 0.9 59
2019-08-03 00:00:00 19.1 10 Norte 17 Norte 0 913.8 1.3 58
2019-08-02 23:00:00 21.4 11 Noroeste 21 Norte 0 913.4 1.1 51
2019-08-02 22:00:00 24.7 12 Norte 18 Norte 0 912.7 0.2 37
2019-08-02 21:00:00 28.8 9 Sudeste 18 Sudeste 0 912.5 -0.3 21
2019-08-02 20:00:00 29.7 12 Este 18 Sudeste 0 912.3 -0.9 20
2019-08-02 19:00:00 29.6 8 Sudeste 22 Este 0 912.5 -1.1 20
2019-08-02 18:00:00 29.1 9 Sur 21 Sudoeste 0 912.8 -0.9 20
2019-08-02 17:00:00 28.8 10 Oeste 28 Sudoeste 0 913.2 -0.8 22
2019-08-02 16:00:00 28.4 13 Sudoeste 30 Sudoeste 0 913.6 -0.7 24
2019-08-02 15:00:00 27.9 16 Sur 28 Oeste 0 913.7 -0.9 27
2019-08-02 14:00:00 26.8 6 Sudeste 17 Sur 0 914 -0.5 30
2019-08-02 13:00:00 25.7 8 Sudeste 15 Sur 0 914.3 -0.2 33
2019-08-02 12:00:00 24.1 4 Sudeste 13 Sudeste 0 914.6 0.2 40
2019-08-02 11:00:00 21.8 7 Este 11 Este 0 914.5 0.3 47
2019-08-02 10:00:00 18.9 5 Este 9 Este 0 914.5 0.4 57
2019-08-02 09:00:00 15.6 0 Calma 5 Norte 0 914.4 0.4 72
2019-08-02 08:00:00 12.3 5 Noroeste 8 Norte 0 914.2 0.1 83
2019-08-02 07:00:00 12.5 -- -- -- -- 0 914.1 0.3 82
2019-08-02 06:00:00 12.6 7 Oeste -- -- 0 914 0.2 81
2019-08-02 05:00:00 12.6 8 Oeste 11 Oeste 0 914.1 0 79
2019-08-02 04:00:00 14.2 0 Calma 8 Noroeste 0 913.8 -0.2 71
2019-08-02 03:00:00 14.6 7 Norte 9 Norte 0 913.8 0.1 70
2019-08-02 02:00:00 15.4 5 Nordeste 9 Norte 0 914.1 1 67
2019-08-02 01:00:00 17 6 Noroeste 11 Nordeste 0 914 2 62
2019-08-02 00:00:00 18.4 8 Nordeste 13 Norte 0 913.7 2.4 58
2019-08-01 23:00:00 19.3 10 Norte 18 Norte 0 913.1 2.4 54
2019-08-01 22:00:00 20.8 13 Norte 32 Norte 0 912 1.6 49
2019-08-01 21:00:00 23.6 15 Norte 28 Norte 0 911.3 1 38
2019-08-01 20:00:00 27.5 13 Norte 30 Noroeste 0 910.7 0.4 26
2019-08-01 19:00:00 26.9 18 Sudoeste 35 Sudoeste 0 910.4 -0.1 28
2019-08-01 18:00:00 28.7 14 Sudoeste 39 Sudoeste 0 910.3 -0.5 26
2019-08-01 17:00:00 28.1 21 Sudoeste 33 Sudoeste 0 910.3 -0.7 25
2019-08-01 16:00:00 27.3 11 Sur 33 Sudeste 0 910.5 -0.7 27
2019-08-01 15:00:00 25.8 13 Sur 26 Sur 0 910.8 -0.5 33
2019-08-01 14:00:00 25.5 9 Sudeste 24 Sudeste 0 911 -0.3 37
2019-08-01 13:00:00 24 8 Sudeste 21 Este 0 911.2 0.1 43
2019-08-01 12:00:00 22.7 8 Sudeste 18 Sudeste 0 911.3 0.3 48
2019-08-01 11:00:00 21.2 10 Sudeste 15 Sudeste 0 911.3 0.5 51
2019-08-01 10:00:00 19.8 5 Sudeste 9 Sudeste 0 911.1 0.4 49
2019-08-01 09:00:00 16.7 7 Noroeste 15 Norte 0 911 0.5 59
2019-08-01 08:00:00 11.9 8 Norte 13 Norte 0 910.8 0.2 79
2019-08-01 07:00:00 12.8 6 Nordeste 8 Nordeste 0 910.7 -0.4 75
2019-08-01 06:00:00 13.3 2 Norte 8 Norte 0 910.5 -0.9 72
2019-08-01 05:00:00 14.2 4 Norte 13 Noroeste 0 910.6 -1.2 69
2019-08-01 04:00:00 14.5 4 Norte 13 Noroeste 0 911.1 -1.1 69
2019-08-01 03:00:00 14.9 10 Norte 18 Norte 0 911.4 -0.8 67
2019-08-01 02:00:00 15.9 10 Noroeste 13 Noroeste 0 911.8 -0.1 64
2019-08-01 01:00:00 17.4 9 Norte 11 Norte 0 912.2 0.8 59
2019-08-01 00:00:00 17.7 8 Norte 15 Norte 0 912.2 0.7 55
2019-07-31 23:00:00 19.8 8 Norte 13 Norte 0 911.9 0.6 38
2019-07-31 22:00:00 22.7 2 Este 5 Este 0 911.4 -0.4 28
2019-07-31 21:00:00 25.1 2 Este 15 Este 0 911.5 -0.2 24
2019-07-31 20:00:00 24.2 6 Este 15 Sudeste 0 911.3 -1 26
2019-07-31 19:00:00 24.5 11 Sudeste 18 Sur 0 911.8 -1 27
2019-07-31 18:00:00 25.2 6 Sudeste 22 Sur 0 911.7 -1.4 25
2019-07-31 17:00:00 25.3 5 Sudeste 24 Sur 0 912.3 -1.2 24
2019-07-31 16:00:00 24.2 12 Sudeste 22 Este 0 912.8 -1.3 26
2019-07-31 15:00:00 23.4 9 Sudeste 21 Este 0 913.1 -1.5 28
2019-07-31 14:00:00 22.4 6 Este 17 Este 0 913.5 -1.4 32
2019-07-31 13:00:00 21 5 Sudeste 15 Nordeste 0 914.1 -1.2 41
2019-07-31 12:00:00 18.8 9 Nordeste 21 Nordeste 0 914.6 -1 48
2019-07-31 11:00:00 16.6 10 Norte 18 Nordeste 0 914.9 -0.8 59
2019-07-31 10:00:00 14.6 11 Norte 17 Norte 0 915.3 -0.2 67
2019-07-31 09:00:00 11.9 10 Norte 15 Norte 0 915.6 0.1 78
2019-07-31 08:00:00 9.4 3 Norte 8 Norte 0 915.7 -0.1 86
2019-07-31 07:00:00 8.8 5 Noroeste 8 Noroeste 0 915.5 -0.2 83
2019-07-31 06:00:00 9.3 5 Norte 8 Norte 0 915.5 -0.2 82
2019-07-31 05:00:00 9.8 4 Noroeste 9 Noroeste 0 915.8 -0.2 81
2019-07-31 04:00:00 10.6 3 Norte 9 Norte 0 915.7 -0.2 78
2019-07-31 03:00:00 11 7 Norte 11 Norte 0 915.7 -0.2 77
2019-07-31 02:00:00 12.6 7 Nordeste 9 Este 0 916 0.4 72
2019-07-31 01:00:00 12.9 7 Norte 15 Norte 0 915.9 1.2 70
2019-07-31 00:00:00 13.5 11 Norte 17 Norte 0 915.9 1.9 68
2019-07-30 23:00:00 14.9 9 Norte 22 Nordeste 0 915.6 1.8 62
2019-07-30 22:00:00 17.1 14 Norte 28 Norte 0 914.7 0.7 53
2019-07-30 21:00:00 21.6 12 Norte 22 Norte 0 914 -0.3 37
2019-07-30 20:00:00 24 3 Sur 24 Oeste 0 913.8 -1 23
2019-07-30 19:00:00 23.5 9 Noroeste 22 Oeste 0 914 -1 21
2019-07-30 18:00:00 23 11 Sudoeste 32 Oeste 0 914.3 -1.2 23
2019-07-30 17:00:00 22.5 7 Sudoeste 21 Este 0 914.8 -1.1 25
2019-07-30 16:00:00 21.6 13 Sur 28 Oeste 0 915 -1.1 27
2019-07-30 15:00:00 21 10 Oeste 28 Oeste 0 915.5 -0.8 29
2019-07-30 14:00:00 19.5 5 Nordeste 17 Nordeste 0 915.9 -0.3 31
2019-07-30 13:00:00 18.2 12 Sudeste 22 Nordeste 0 916.1 -0.1 34
2019-07-30 12:00:00 17.1 10 Nordeste 18 Norte 0 916.3 0.4 35
2019-07-30 11:00:00 15.6 8 Norte 24 Nordeste 0 916.2 0.8 42
2019-07-30 10:00:00 13.9 12 Norte 24 Nordeste 0 916.2 1.2 52
2019-07-30 09:00:00 11.7 6 Norte 15 Noroeste 0 915.9 1.3 61
2019-07-30 08:00:00 8.2 12 Noroeste 17 Noroeste 0 915.4 0.9 74
2019-07-30 07:00:00 7.8 10 Noroeste 17 Noroeste 0 915 0.4 76
2019-07-30 06:00:00 7.5 12 Noroeste 17 Noroeste 0 914.6 0.2 77
2019-07-30 05:00:00 8.3 11 Noroeste 21 Noroeste 0 914.5 0.3 75
2019-07-30 04:00:00 8.8 10 Oeste 21 Oeste 0 914.6 0.6 78
2019-07-30 03:00:00 9.9 12 Oeste 24 Oeste 0 914.4 1.2 74
2019-07-30 02:00:00 10.7 10 Oeste 22 Oeste 0 914.2 1.5 78
2019-07-30 01:00:00 11.8 15 Oeste 30 Oeste 0 914 2.1 71
2019-07-30 00:00:00 13.2 14 Oeste 35 Oeste 0 913.2 2.1 64
2019-07-29 23:00:00 14.1 15 Oeste 30 Oeste 0 912.7 2.2 59
2019-07-29 22:00:00 15.8 18 Oeste 45 Oeste 0 911.9 1.6 49
2019-07-29 21:00:00 18.6 26 Oeste 48 Oeste 0 911.1 1.1 36
2019-07-29 20:00:00 20.1 27 Oeste 50 Oeste 0 910.5 0.4 30
2019-07-29 19:00:00 21.1 29 Oeste 48 Oeste 0 910.3 0.2 33
2019-07-29 18:00:00 22 29 Oeste 52 Oeste 0 910 0.1 30
2019-07-29 17:00:00 21.9 27 Oeste 45 Oeste 0 910.1 0.2 31
2019-07-29 16:00:00 21.7 25 Oeste 46 Oeste 0 910.1 0.4 32
2019-07-29 15:00:00 21.5 23 Oeste 42 Oeste 0 909.9 0.4 29
2019-07-29 14:00:00 20.9 26 Oeste 39 Oeste 0 909.9 0.5 34
2019-07-29 13:00:00 20.2 24 Oeste 41 Oeste 0 909.7 0.7 42
2019-07-29 12:00:00 19.3 27 Oeste 41 Oeste 0 909.5 0.7 48
2019-07-29 11:00:00 18.1 26 Oeste 45 Oeste 0 909.4 0.9 58
2019-07-29 10:00:00 17.3 22 Oeste 33 Oeste 0 909 0.9 60
2019-07-29 09:00:00 15.4 7 Sur 13 Sudoeste 0 908.8 1.1 62
2019-07-29 08:00:00 13.1 0 Calma 8 Sudeste 0 908.5 0.7 70
2019-07-29 07:00:00 14 4 Sudeste 15 Noroeste 0 908.1 0.2 68
2019-07-29 06:00:00 14.7 12 Noroeste 28 Noroeste 0 907.7 -0.2 61
2019-07-29 05:00:00 14.9 12 Noroeste 22 Noroeste 0 907.8 -0.2 53
2019-07-29 04:00:00 15.2 5 Norte 11 Noroeste 0 907.9 -0.2 67
2019-07-29 03:00:00 15.9 9 Noroeste 17 Noroeste 0 907.9 -0.2 62
2019-07-29 02:00:00 15.6 3 Noroeste 11 Noroeste 0 908 -0.1 60
2019-07-29 01:00:00 16 3 Noroeste 13 Norte 0 908.1 0.3 59
2019-07-29 00:00:00 16.5 9 Noroeste 13 Noroeste 0 908.1 0.4 56
2019-07-28 23:00:00 19.2 8 Noroeste 11 Noroeste 0 908.1 0.5 48
2019-07-28 22:00:00 22.1 4 Sur 13 Sudeste 0 907.8 0 35
2019-07-28 21:00:00 24.1 11 Sudeste 18 Sudeste 0 907.7 -0.4 32
2019-07-28 20:00:00 24.5 11 Sudoeste 24 Sur 0 907.6 -1.1 31
2019-07-28 19:00:00 24.5 8 Sudoeste 24 Sudoeste 0 907.8 -1.4 32
2019-07-28 18:00:00 23.5 15 Sudoeste 35 Sudoeste 0 908.1 -1.6 34
2019-07-28 17:00:00 22.9 12 Sudoeste 30 Sudoeste 0 908.7 -1.6 36
2019-07-28 16:00:00 21.7 14 Sudoeste 30 Sudoeste 0 909.2 -1.4 40
2019-07-28 15:00:00 20.6 13 Sudoeste 32 Oeste 0 909.7 -1.2 42
2019-07-28 14:00:00 19 14 Sur 24 Sudoeste 0 910.3 -1 48
2019-07-28 13:00:00 17.9 12 Sur 24 Sudoeste 0 910.6 -0.6 51
2019-07-28 12:00:00 16.8 11 Sudoeste 17 Sudoeste 0 910.9 -0.3 56
2019-07-28 11:00:00 15.4 6 Este 13 Sudeste 0 911.3 0.4 60
2019-07-28 10:00:00 14.2 4 Este 11 Norte 0 911.2 0.2 64
2019-07-28 09:00:00 12 4 Nordeste 11 Noroeste 0 911.2 0.5 75
2019-07-28 08:00:00 9 8 Noroeste 11 Noroeste 0 910.9 0.3 86
2019-07-28 07:00:00 8.3 8 Noroeste 11 Oeste 0 911 0.2 87
2019-07-28 06:00:00 8.9 7 Oeste 13 Sudeste 0 910.7 -0.5 85
2019-07-28 05:00:00 9 4 Oeste 13 Noroeste 0 910.6 -0.7 83
2019-07-28 04:00:00 9.6 10 Noroeste 13 Noroeste 0 910.8 -0.2 82
2019-07-28 03:00:00 10.4 9 Noroeste 17 Norte 0 911.2 0.5 78
2019-07-28 02:00:00 11.5 8 Norte 22 Norte 0 911.3 0.9 74
2019-07-28 01:00:00 12.3 5 Norte 18 Norte 0 911 1.4 77
2019-07-28 00:00:00 12.7 13 Norte 24 Nordeste 0 910.7 1.6 76
2019-07-27 23:00:00 13.6 15 Norte 30 Norte 0 910.4 1.8 71
2019-07-26 12:00:00 21.4 9 Sudeste 13 Este 0 910.7 -0.2 53
2019-07-26 11:00:00 19.1 7 Noroeste 22 Oeste 0 910.9 0.1 67
2019-07-26 10:00:00 17.1 12 Oeste 21 Oeste 0 911.1 0.3 68
2019-07-26 09:00:00 14.6 13 Oeste 18 Noroeste 0 910.9 0.3 79
2019-07-26 08:00:00 13.2 10 Oeste 21 Oeste 0 910.8 0 83
2019-07-26 07:00:00 13.8 13 Oeste 22 Oeste 0 910.8 -0.2 81
2019-07-26 06:00:00 14.2 15 Oeste 28 Oeste 0.1 910.6 -0.4 82
2019-07-26 05:00:00 15.1 17 Oeste 26 Oeste 0 910.8 -0.3 79
2019-07-26 04:00:00 16.3 13 Oeste 21 Oeste 0 911 -0.1 80
2019-07-26 03:00:00 16.7 11 Oeste 26 Oeste 0 911 -0.2 80
2019-07-26 02:00:00 17.6 15 Oeste 26 Oeste 0 911.1 0 77
2019-07-26 01:00:00 18.1 15 Oeste 26 Oeste 0 911.1 0.5 75
2019-07-26 00:00:00 18.3 15 Oeste 30 Oeste 0 911.2 0 77
2019-07-25 23:00:00 19.1 17 Oeste 35 Sudoeste 0.1 911.1 0.6 72
2019-07-25 22:00:00 19.4 13 Nordeste 22 Noroeste 0 910.6 0.4 73
2019-07-25 21:00:00 20.7 15 Oeste 39 Oeste 0 911.2 1.3 64
2019-07-25 20:00:00 23.2 21 Oeste 35 Oeste 0 910.5 0.5 44
2019-07-25 19:00:00 26.6 25 Oeste 48 Sudoeste 0 910.2 -0.1 34
2019-07-25 18:00:00 28.3 31 Sur 50 Sudoeste 0 909.9 -0.9 28
2019-07-25 17:00:00 29.4 24 Sur 46 Sur 0 910 -1 29
2019-07-25 16:00:00 28.9 26 Sur 46 Sur 0 910.3 -0.9 27
2019-07-25 15:00:00 27.9 21 Sur 35 Sur 0 910.8 -0.3 30
2019-07-25 14:00:00 27 20 Sur 39 Sur 0 911 -0.2 31
2019-07-25 13:00:00 26.3 22 Sur 35 Sur 0 911.2 -0.2 31
2019-07-25 12:00:00 26.1 17 Sur 30 Sur 0 911.1 -0.3 32
2019-07-25 11:00:00 23.4 10 Sudeste 18 Este 0 911.2 0.1 41
2019-07-25 10:00:00 21.7 5 Nordeste 11 Sudeste 0 911.4 0.6 47
2019-07-25 09:00:00 19.8 5 Nordeste 9 Nordeste 0 911.4 1 54
2019-07-25 08:00:00 16.1 2 Norte 9 Nordeste 0 911.1 0.7 66
2019-07-25 07:00:00 15.3 4 Norte 8 Norte 0 910.8 0.4 66
2019-07-25 06:00:00 16.5 3 Noroeste 8 Nordeste 0 910.4 0 63
2019-07-25 05:00:00 17.7 2 Nordeste 5 Nordeste 0 910.4 -0.5 60
2019-07-25 04:00:00 18.3 6 Este 15 Este 0 910.4 -0.6 59
2019-07-25 03:00:00 19.3 12 Noroeste -- -- 0 910.4 -0.5 52
2019-07-25 02:00:00 20.2 4 Noroeste 9 Norte 0 910.9 0.1 52
2019-07-25 01:00:00 22 8 Noroeste 17 Oeste 0 911 0.6 46
2019-07-25 00:00:00 23.6 14 Noroeste 24 Noroeste 0 910.9 0.6 42
2019-07-24 23:00:00 24.3 13 Oeste 21 Oeste 0 910.8 0.6 40
2019-07-24 22:00:00 27.1 9 Sudoeste 21 Sudoeste 0 910.4 -0.1 34
2019-07-24 21:00:00 30.3 14 Sudoeste 32 Sudoeste 0 910.3 -0.7 26
2019-07-24 20:00:00 31.2 22 Sudoeste 39 Oeste 0 910.2 -1.3 23
2019-07-24 19:00:00 31.6 25 Sudoeste 39 Sudoeste 0 910.5 -1.6 23
2019-07-24 18:00:00 31.2 19 Sur 46 Sur 0 911 -1.5 27
2019-07-24 17:00:00 30.7 18 Sur 39 Sur 0 911.5 -1.1 29
2019-07-24 16:00:00 29.9 20 Sur 41 Sudoeste 0 912.1 -0.9 31
2019-07-24 15:00:00 29.8 24 Sur 37 Sur 0 912.5 -0.9 30
2019-07-24 14:00:00 28.9 14 Sur 32 Sur 0 912.6 -0.9 34
2019-07-24 13:00:00 27.5 12 Sur 24 Sur 0 913 -0.5 39
2019-07-24 12:00:00 26.5 9 Sudeste 18 Este 0 913.4 -0.4 38
2019-07-24 11:00:00 24.6 11 Este 18 Este 0 913.5 -0.2 43
2019-07-24 10:00:00 22.9 10 Nordeste 15 Nordeste 0 913.5 0.1 47
2019-07-24 09:00:00 21.3 9 Norte 15 Norte 0 913.8 0.3 53
2019-07-24 08:00:00 17.5 12 Norte 18 Norte 0 913.7 0.1 68
2019-07-24 07:00:00 16.6 7 Norte 13 Norte 0 913.4 -0.4 71
2019-07-24 06:00:00 17.2 10 Norte 13 Norte 0 913.5 -0.6 70
2019-07-24 05:00:00 18.1 8 Norte 11 Norte 0 913.6 -0.9 67
2019-07-24 04:00:00 18.9 9 Norte 17 Norte 0 913.8 -0.9 64
2019-07-24 03:00:00 19.8 10 Norte 18 Norte 0 914.1 -0.5 62
2019-07-24 02:00:00 19.2 13 Norte 21 Norte 0 914.5 0.8 65
2019-07-24 01:00:00 19.2 4 Nordeste 13 Noroeste 0 914.7 1.7 67
2019-07-24 00:00:00 19.9 5 Nordeste 15 Noroeste 0 914.6 1.3 66
2019-07-23 23:00:00 20.9 6 Oeste 24 Noroeste 0 913.7 0.8 61
2019-07-23 22:00:00 20.5 14 Norte 32 Oeste 0 913 0.7 66
2019-07-23 21:00:00 21.6 16 Noroeste 41 Oeste 0 913.3 0.8 61
2019-07-23 20:00:00 24.3 23 Noroeste 42 Oeste 0 912.9 -0.5 50
2019-07-23 19:00:00 29.9 6 Sudeste 28 Sudoeste 0 912.3 -1.6 30
2019-07-23 18:00:00 31 12 Sur 24 Sur 0 912.5 -1.6 29
2019-07-23 17:00:00 30.1 10 Sur 28 Sudoeste 0 913.4 -1.4 31
2019-07-23 16:00:00 29.6 17 Sur 32 Sur 0 913.9 -1 28
2019-07-23 15:00:00 29.3 10 Sur 28 Sur 0 914.1 -0.3 30
2019-07-23 14:00:00 27.7 15 Sudeste 28 Sudeste 0 914.8 0.5 39
2019-07-23 13:00:00 26 11 Sur 21 Sur 0 914.9 -1 45
2019-07-23 12:00:00 23.8 9 Este 22 Nordeste 0 914.4 -2 50
2019-07-23 11:00:00 21.7 12 Norte 21 Norte 0 914.3 -1.8 57
2019-07-23 10:00:00 21.1 13 Nordeste 18 Norte 0 915.9 0.2 60
2019-07-23 09:00:00 18.7 10 Norte 21 Norte 0 916.4 1.2 69
2019-07-23 08:00:00 17 10 Norte 15 Norte 0 916.1 1.4 77
2019-07-23 07:00:00 16.1 6 Noroeste 13 Norte 0 915.7 0.6 80
2019-07-23 06:00:00 17.4 0 Calma 17 Este 0 915.2 -0.6 76
2019-07-23 05:00:00 18 10 Norte 17 Norte 0 914.7 -1.3 67
2019-07-23 04:00:00 19 11 Norte 17 Norte 0 915.1 -2 70
2019-07-23 03:00:00 19.4 14 Este 28 Sur 0 915.8 -1.6 66
2019-07-23 02:00:00 19.1 7 Norte 24 Nordeste 0 916 -1.3 73
2019-07-23 01:00:00 19.5 11 Este 32 Norte 0 917.1 -1.3 70
2019-07-23 00:00:00 19.2 14 Nordeste 26 Oeste 0.3 917.4 0.2 79
2019-07-22 23:00:00 21 14 Norte 41 Este 0.8 917.3 3.2 67
2019-07-22 22:00:00 23 -- -- 41 Sudeste 0.4 918.4 4 53
2019-07-22 21:00:00 23.2 37 Sur 80 Sur 0 917.2 2.4 43
2019-07-22 20:00:00 33.8 10 Sudoeste 18 Sudoeste 0 914.1 -1.3 19
2019-07-22 19:00:00 33.9 12 Sudoeste 22 Sudoeste 0 914.4 -1.4 19
2019-07-22 18:00:00 34.3 18 Sudoeste 30 Sudoeste 0 914.8 -1.7 19
2019-07-22 17:00:00 33.9 13 Sur 22 Sudoeste 0 915.4 -1.6 21
2019-07-22 16:00:00 33.1 14 Sudeste 30 Este 0 915.8 -1.6 24
2019-07-22 15:00:00 31.9 9 Sudeste 30 Sudeste 0 916.5 -1.2 27
2019-07-22 14:00:00 30.3 8 Sur 26 Este 0 917 -0.7 30
2019-07-22 13:00:00 28.9 13 Este 24 Este 0 917.4 -0.5 33
2019-07-22 12:00:00 27.6 11 Este 22 Este 0 917.7 -0.1 38
2019-07-22 11:00:00 25.4 11 Este 21 Nordeste 0 917.7 -0.1 49
2019-07-22 10:00:00 22.9 10 Nordeste 18 Nordeste 0 917.9 0.3 56
2019-07-22 09:00:00 20.8 9 Norte 18 Norte 0 917.8 0.2 64
2019-07-22 08:00:00 16.7 8 Norte 13 Norte 0 917.8 0.1 77
2019-07-22 07:00:00 16.2 5 Norte 13 Norte 0 917.6 -0.2 77
2019-07-22 06:00:00 16.6 5 Noroeste 8 Noroeste 0 917.6 -0.5 76
2019-07-22 05:00:00 17.3 6 Noroeste 9 Noroeste 0 917.7 -0.5 72
2019-07-22 04:00:00 19.2 6 Norte 11 Noroeste 0 917.8 -0.4 65
2019-07-22 03:00:00 19.4 8 Norte 15 Norte 0 918.1 0 63
2019-07-22 02:00:00 18.9 10 Norte 15 Norte 0 918.2 1.1 64
2019-07-22 01:00:00 20.9 8 Norte 11 Norte 0 918.2 1.9 56
2019-07-22 00:00:00 22.2 5 Nordeste 39 Este 0 918.1 2 52
2019-07-21 23:00:00 24 11 Norte 15 Norte 0 917.1 1.3 44
2019-07-21 22:00:00 28.4 4 Oeste 11 Sudeste 0 916.3 0.7 23
2019-07-21 21:00:00 30.5 10 Sudeste 17 Sudeste 0 916.1 0.1 20
2019-07-21 20:00:00 31.4 8 Sur 26 Oeste 0 915.8 -0.6 24
2019-07-21 19:00:00 30.9 12 Sur 24 Sur 0 915.6 -0.9 27
2019-07-21 18:00:00 30.6 13 Sudoeste 24 Sur 0 916 -0.6 27
2019-07-21 17:00:00 29.8 14 Sudoeste 30 Sudoeste 0 916.4 -0.7 27
2019-07-21 16:00:00 29.5 12 Sudeste 26 Sur 0 916.5 -1 30
2019-07-21 15:00:00 28.3 11 Sudoeste 22 Sur 0 916.6 -1 32
2019-07-21 14:00:00 27 9 Sudeste 22 Sur 0 917.1 -0.2 35
2019-07-21 13:00:00 25.1 6 Este 21 Este 0 917.5 0.2 45
2019-07-21 12:00:00 23.4 10 Este 21 Este 0 917.6 0.4 50
2019-07-21 11:00:00 21.8 3 Este 15 Oeste 0 917.3 0.4 56
2019-07-21 10:00:00 19.8 8 Oeste 13 Oeste 0 917.3 0.6 66
2019-07-21 09:00:00 17 4 Noroeste 9 Norte 0 917.2 0.5 75
2019-07-21 08:00:00 13.7 9 Noroeste 13 Noroeste 0 916.9 0.5 85
2019-07-21 07:00:00 13.2 9 Noroeste 11 Oeste 0 916.7 0.3 86
2019-07-21 06:00:00 13.6 0 Calma 9 Noroeste 0 916.7 0.1 83
2019-07-21 05:00:00 14 5 Noroeste 9 Norte 0 916.4 -0.3 82
2019-07-21 04:00:00 15.3 5 Noroeste 11 Norte 0 916.4 -0.1 76
2019-07-21 03:00:00 16 7 Norte 13 Nordeste 0 916.6 0.5 75
2019-07-21 02:00:00 17.2 10 Nordeste 17 Norte 0 916.7 1.6 72
2019-07-21 01:00:00 17.9 11 Norte 18 Norte 0 916.5 2.7 70
2019-07-21 00:00:00 19 10 Norte 21 Nordeste 0 916.1 3.1 66
2019-07-20 23:00:00 20.3 12 Norte 21 Noroeste 0 915.1 2.5 62
2019-07-20 22:00:00 24.5 11 Norte 28 Noroeste 0 913.8 1.4 38
2019-07-20 21:00:00 27.6 17 Oeste 30 Oeste 0 913 0.5 32
2019-07-20 20:00:00 29.9 15 Oeste 26 Sudoeste 0 912.6 0.1 26
2019-07-20 19:00:00 29.9 12 Sur 24 Sur 0 912.4 -0.4 27
2019-07-20 18:00:00 30.1 10 Sudoeste 32 Oeste 0 912.5 -0.4 26
2019-07-20 17:00:00 30.2 11 Oeste 30 Sudoeste 0 912.5 -0.5 25
2019-07-20 16:00:00 29.4 16 Sudoeste 26 Sur 0 912.8 -0.1 25
2019-07-20 15:00:00 28.8 16 Oeste 32 Oeste 0 912.9 -0.1 25
2019-07-20 14:00:00 27.9 14 Sudoeste 26 Sudoeste 0 913 0 28
2019-07-20 13:00:00 26.8 14 Sudoeste 28 Sudoeste 0 912.9 0 31
2019-07-20 12:00:00 25.1 9 Sudoeste 33 Sudoeste 0 913 0.4 36
2019-07-20 11:00:00 23.5 7 Nordeste 15 Norte 0 913 0.8 49
2019-07-20 10:00:00 21.5 4 Este 11 Nordeste 0 912.9 1 55
2019-07-20 09:00:00 19.1 6 Norte 9 Norte 0 912.6 1 65
2019-07-20 08:00:00 15.7 3 Nordeste 17 Noroeste 0 912.2 0.9 79
2019-07-20 07:00:00 14.3 8 Noroeste 13 Noroeste 0 911.9 0.7 80
2019-07-20 06:00:00 15.3 6 Norte 9 Noroeste 0 911.6 0.4 78
2019-07-20 05:00:00 16.1 2 Norte 13 Noroeste 0 911.3 0 75
2019-07-20 04:00:00 17.7 8 Norte 15 Noroeste 0 911.2 -0.1 68
2019-07-20 03:00:00 17.6 9 Oeste 11 Oeste 0 911.2 0.2 66
2019-07-20 02:00:00 20.2 6 Norte 15 Norte 0 911.3 0.5 57
2019-07-20 01:00:00 20.5 6 Norte 15 Noroeste 0 911.3 0.9 55
2019-07-20 00:00:00 21.1 11 Noroeste 18 Noroeste 0 911 0.8 44
2019-07-19 23:00:00 22.9 11 Noroeste 21 Oeste 0 910.8 1.1 35
2019-07-19 22:00:00 25.7 14 Oeste 30 Oeste 0 910.4 0.8 29
2019-07-19 21:00:00 28.4 22 Oeste 37 Oeste 0 910.2 0.1 26
2019-07-19 20:00:00 30.6 21 Oeste 32 Oeste 0 909.7 -0.9 24
2019-07-19 19:00:00 31.5 14 Oeste 32 Sur 0 909.6 -1.7 21
2019-07-19 18:00:00 30.4 19 Sudoeste 30 Sudoeste 0 910.1 -1.9 21
2019-07-19 17:00:00 31 20 Sudoeste 30 Oeste 0 910.6 -1.8 21
2019-07-19 16:00:00 29.7 10 Sudoeste 32 Sur 0 911.3 -1.5 25
2019-07-19 15:00:00 29.1 20 Sudoeste 32 Sudoeste 0 912 -1.3 22
2019-07-19 14:00:00 28.1 15 Sur 24 Sur 0 912.4 -1.3 26
2019-07-19 13:00:00 26.6 8 Sudeste 18 Sur 0 912.8 -1.1 30
2019-07-19 12:00:00 24.6 7 Este 21 Este 0 913.3 -0.6 35
2019-07-19 11:00:00 23.2 5 Este 11 Este 0 913.7 -0.3 40
2019-07-19 10:00:00 20.8 7 Este 9 Este 0 913.9 -0.2 54
2019-07-19 09:00:00 17.6 4 Nordeste 9 Norte 0 913.9 -0.2 64
2019-07-19 08:00:00 15 4 Norte 9 Noroeste 0 914 -0.2 75
2019-07-19 07:00:00 14 4 Oeste 5 Oeste 0 914.1 -0.4 75
2019-07-19 06:00:00 14.4 2 Oeste 8 Oeste 0 914.1 -0.5 73
2019-07-19 05:00:00 14.4 6 Oeste 9 Noroeste 0 914.2 -0.5 72
2019-07-19 04:00:00 15.2 0 Calma 9 Noroeste 0 914.5 0 68
2019-07-19 03:00:00 15.5 8 Noroeste 9 Noroeste 0 914.6 0.4 66
2019-07-19 02:00:00 17.8 0 Calma 5 Norte 0 914.7 0.8 57
2019-07-19 01:00:00 18.5 5 Norte 11 Norte 0 914.5 1.4 54
2019-07-19 00:00:00 19.2 8 Norte 11 Norte 0 914.2 1.7 54